Aviation Digital Data Service (ADDS)

Output produced by METARs form (2055 UTC 22 June 2018)
found at http://aviationweather.gov/adds/metars/
 
KLCH 221720Z 2218/2318 22010G16KT P6SM FEW025 BKN040 
     FM230100 20005KT P6SM FEW015 SCT250 
     TEMPO 2311/2315 BKN015 
     FM231500 21012G18KT P6SM SCT025